createdAt,value
2018-05-07T00:00:04.964Z,10.00
2018-05-07T00:01:41.940Z,11.00
2018-05-07T00:03:19.752Z,8.25
2018-05-07T00:04:56.159Z,8.75
2018-05-07T00:06:32.444Z,9.25
2018-05-07T00:08:09.557Z,11.00
2018-05-07T00:09:46.329Z,8.25
2018-05-07T00:11:22.658Z,10.50
2018-05-07T00:12:59.736Z,9.25
2018-05-07T00:14:36.103Z,8.75
2018-05-07T00:16:12.522Z,11.50
2018-05-07T00:17:49.223Z,9.00
2018-05-07T00:19:25.911Z,10.50
2018-05-07T00:21:04.574Z,23.00
2018-05-07T00:22:41.494Z,14.00
2018-05-07T00:24:18.183Z,12.00
2018-05-07T00:25:54.499Z,12.00
2018-05-07T00:27:30.806Z,12.00
2018-05-07T00:29:07.499Z,12.00
2018-05-07T00:30:44.030Z,12.00
2018-05-07T00:32:21.042Z,12.00
2018-05-07T00:33:57.258Z,11.50
2018-05-07T00:35:34.787Z,11.75
2018-05-07T00:37:11.100Z,9.25
2018-05-07T00:38:47.512Z,9.50
2018-05-07T00:40:23.770Z,9.25
2018-05-07T00:42:00.526Z,9.25
2018-05-07T00:43:37.004Z,10.50
2018-05-07T00:45:16.988Z,9.75
2018-05-07T00:46:53.335Z,10.25
2018-05-07T00:48:30.037Z,14.00
2018-05-07T00:50:06.427Z,8.75
2018-05-07T00:51:43.517Z,9.50
2018-05-07T00:53:19.774Z,11.00
2018-05-07T00:55:09.607Z,11.25
2018-05-07T00:56:45.842Z,8.25
2018-05-07T00:58:22.950Z,11.75
2018-05-07T00:59:59.425Z,11.25
2018-05-07T01:01:36.406Z,10.00
2018-05-07T01:03:12.656Z,10.00
2018-05-07T01:04:48.994Z,10.00
2018-05-07T01:06:25.995Z,11.00
2018-05-07T01:08:03.124Z,9.00
2018-05-07T01:09:39.840Z,12.25
2018-05-07T01:11:16.097Z,10.50
2018-05-07T01:12:52.412Z,10.50
2018-05-07T01:14:28.755Z,11.50
2018-05-07T01:16:05.365Z,12.00
2018-05-07T01:17:41.966Z,10.75
2018-05-07T01:19:19.217Z,9.25
2018-05-07T01:20:55.485Z,9.50
2018-05-07T01:22:32.091Z,8.75
2018-05-07T01:24:09.885Z,9.25
2018-05-07T01:25:46.222Z,11.00
2018-05-07T01:27:22.545Z,10.50
2018-05-07T01:28:58.772Z,11.00
2018-05-07T01:30:36.861Z,11.00
2018-05-07T01:32:13.297Z,10.75
2018-05-07T01:33:49.596Z,11.25
2018-05-07T01:35:26.220Z,12.50
2018-05-07T01:37:02.931Z,9.75
2018-05-07T01:38:39.159Z,9.75
2018-05-07T01:40:15.334Z,10.75
2018-05-07T01:41:51.633Z,10.25
2018-05-07T01:43:27.993Z,10.00
2018-05-07T01:45:04.930Z,11.00
2018-05-07T01:46:41.786Z,13.25
2018-05-07T01:48:18.030Z,12.75
2018-05-07T01:49:54.317Z,12.25
2018-05-07T01:51:30.961Z,10.50
2018-05-07T01:53:07.188Z,11.75
2018-05-07T01:54:43.371Z,10.00
2018-05-07T01:56:19.601Z,10.75
2018-05-07T01:57:55.862Z,11.00
2018-05-07T01:59:33.501Z,12.00
2018-05-07T02:01:10.043Z,12.75
2018-05-07T02:02:46.257Z,12.25
2018-05-07T02:04:24.051Z,10.25
2018-05-07T02:06:01.402Z,11.00
2018-05-07T02:07:37.668Z,12.75
2018-05-07T02:09:14.759Z,9.75
2018-05-07T02:10:50.999Z,12.00
2018-05-07T02:12:27.246Z,11.00
2018-05-07T02:14:04.859Z,12.50
2018-05-07T02:15:41.334Z,9.00
2018-05-07T02:17:17.750Z,11.50
2018-05-07T02:18:54.071Z,9.00
2018-05-07T02:20:30.850Z,13.00
2018-05-07T02:22:08.162Z,9.00
2018-05-07T02:23:44.472Z,10.75
2018-05-07T02:25:21.241Z,9.75
2018-05-07T02:26:57.455Z,8.50
2018-05-07T02:28:34.025Z,10.25
2018-05-07T02:30:10.851Z,12.25
2018-05-07T02:31:47.375Z,13.50
2018-05-07T02:33:24.093Z,9.75
2018-05-07T02:35:00.359Z,14.00
2018-05-07T02:36:36.663Z,11.00
2018-05-07T02:38:13.455Z,11.00
2018-05-07T02:39:50.175Z,12.00
2018-05-07T02:41:26.398Z,11.25
2018-05-07T02:43:02.658Z,13.75
2018-05-07T02:44:39.001Z,10.00
2018-05-07T02:46:15.801Z,11.25
2018-05-07T02:47:52.922Z,9.50
2018-05-07T02:49:29.235Z,12.50
2018-05-07T02:51:05.543Z,9.50
2018-05-07T02:52:42.250Z,15.00
2018-05-07T02:54:19.289Z,12.25
2018-05-07T02:55:55.513Z,11.00
2018-05-07T02:57:31.758Z,8.75
2018-05-07T02:59:08.400Z,9.25
2018-05-07T03:00:45.453Z,9.25
2018-05-07T03:02:21.765Z,11.50
2018-05-07T03:03:58.060Z,10.50
2018-05-07T03:05:34.802Z,9.00
2018-05-07T03:07:11.026Z,9.75
2018-05-07T03:08:47.687Z,12.50
2018-05-07T03:10:24.162Z,9.75
2018-05-07T03:12:00.704Z,12.25
2018-05-07T03:13:37.197Z,11.25
2018-05-07T03:15:15.323Z,13.25
2018-05-07T03:16:51.874Z,13.75
2018-05-07T03:18:30.235Z,13.75
2018-05-07T03:20:06.575Z,12.50
2018-05-07T03:21:44.458Z,14.25
2018-05-07T03:23:21.450Z,14.00
2018-05-07T03:24:57.793Z,14.25
2018-05-07T03:26:36.062Z,13.50
2018-05-07T03:28:12.434Z,13.00
2018-05-07T03:29:48.851Z,10.75
2018-05-07T03:31:26.267Z,10.75
2018-05-07T03:33:02.604Z,11.25
2018-05-07T03:34:39.947Z,11.00
2018-05-07T03:36:17.056Z,12.50
2018-05-07T03:37:53.510Z,9.75
2018-05-07T03:39:30.201Z,10.00
2018-05-07T03:41:06.516Z,13.75
2018-05-07T03:42:42.858Z,13.00
2018-05-07T03:44:19.146Z,11.00
2018-05-07T03:45:57.304Z,11.50
2018-05-07T03:47:34.382Z,9.50
2018-05-07T03:49:11.494Z,14.25
2018-05-07T03:50:47.779Z,13.75
2018-05-07T03:52:24.640Z,10.00
2018-05-07T03:54:00.997Z,13.50
2018-05-07T03:55:37.368Z,13.00
2018-05-07T03:57:14.944Z,11.00
2018-05-07T03:58:51.201Z,13.50
2018-05-07T04:00:32.181Z,12.25
2018-05-07T04:02:08.496Z,14.50
2018-05-07T04:03:45.489Z,9.50
2018-05-07T04:05:21.710Z,12.50
2018-05-07T04:06:59.153Z,12.75
2018-05-07T04:08:35.977Z,12.75
2018-05-07T04:10:12.376Z,12.00
2018-05-07T04:11:49.564Z,13.75
2018-05-07T04:13:25.727Z,12.00
2018-05-07T04:15:02.511Z,11.50
2018-05-07T04:16:52.220Z,12.00
2018-05-07T04:21:40.262Z,9.50
2018-05-07T04:24:20.258Z,13.00
2018-05-07T04:25:56.788Z,11.25
2018-05-07T04:27:33.072Z,12.00
2018-05-07T04:29:09.305Z,13.00
2018-05-07T04:30:46.092Z,12.50
2018-05-07T04:32:23.872Z,16.75
2018-05-07T04:34:02.953Z,12.25
2018-05-07T04:35:39.258Z,15.00
2018-05-07T04:37:15.528Z,12.25
2018-05-07T04:38:51.769Z,13.25
2018-05-07T04:40:28.030Z,10.75
2018-05-07T04:42:04.263Z,11.50
2018-05-07T04:43:40.700Z,10.25
2018-05-07T04:45:18.489Z,13.50
2018-05-07T04:46:55.090Z,12.25
2018-05-07T04:48:31.361Z,12.00
2018-05-07T04:50:07.718Z,10.50
2018-05-07T04:51:44.454Z,11.00
2018-05-07T04:53:20.662Z,13.25
2018-05-07T04:54:57.260Z,20.00
2018-05-07T04:56:33.739Z,11.50
2018-05-07T04:59:46.939Z,12.00
2018-05-07T05:01:23.733Z,13.00
2018-05-07T05:03:00.087Z,12.75
2018-05-07T05:04:37.464Z,11.25
2018-05-07T05:06:13.715Z,12.50
2018-05-07T05:07:49.962Z,14.75
2018-05-07T05:09:26.218Z,13.00
2018-05-07T05:11:02.911Z,11.50
2018-05-07T05:12:39.174Z,13.50
2018-05-07T05:14:15.506Z,13.00
2018-05-07T05:15:52.074Z,14.25
2018-05-07T05:17:28.800Z,15.00
2018-05-07T05:19:05.494Z,15.75
2018-05-07T05:20:41.779Z,21.00
2018-05-07T05:22:19.565Z,15.75
2018-05-07T05:24:03.228Z,16.50
2018-05-07T05:27:18.011Z,14.25
2018-05-07T05:28:54.715Z,13.25
2018-05-07T05:30:31.600Z,14.25
2018-05-07T05:32:07.945Z,15.75
2018-05-07T05:33:45.030Z,22.00
2018-05-07T05:35:22.681Z,13.00
2018-05-07T05:36:59.763Z,13.50
2018-05-07T05:38:36.956Z,11.75
2018-05-07T05:40:13.629Z,22.00
2018-05-07T05:41:50.026Z,15.50
2018-05-07T05:43:26.409Z,14.25
2018-05-07T05:45:03.582Z,13.50
2018-05-07T05:46:41.097Z,11.25
2018-05-07T05:48:17.777Z,14.00
2018-05-07T05:49:54.463Z,16.25
2018-05-07T05:51:30.697Z,17.50
2018-05-07T05:53:06.959Z,11.75
2018-05-07T05:54:43.606Z,11.25
2018-05-07T05:56:20.684Z,11.50
2018-05-07T05:57:56.902Z,11.75
2018-05-07T05:59:33.182Z,9.25
2018-05-07T06:01:10.173Z,11.00
2018-05-07T06:02:46.462Z,11.25
2018-05-07T06:04:22.693Z,9.00
2018-05-07T06:05:58.965Z,10.25
2018-05-07T06:07:35.276Z,11.00
2018-05-07T06:09:11.745Z,10.00
2018-05-07T06:10:48.128Z,11.00
2018-05-07T06:12:24.437Z,9.75
2018-05-07T06:14:01.001Z,9.75
2018-05-07T06:15:37.510Z,10.50
2018-05-07T06:17:13.743Z,15.00
2018-05-07T06:18:50.058Z,10.75
2018-05-07T06:20:27.069Z,14.25
2018-05-07T06:22:03.329Z,12.25
2018-05-07T06:23:40.478Z,10.50
2018-05-07T06:25:17.461Z,10.50
2018-05-07T06:26:55.003Z,8.50
2018-05-07T06:28:31.212Z,12.00
2018-05-07T06:30:08.274Z,12.75
2018-05-07T06:31:44.762Z,11.50
2018-05-07T06:33:22.507Z,11.25
2018-05-07T06:34:59.634Z,12.50
2018-05-07T06:36:35.886Z,13.75
2018-05-07T06:38:12.126Z,14.75
2018-05-07T06:39:48.850Z,13.75
2018-05-07T06:41:25.052Z,11.75
2018-05-07T06:43:01.616Z,10.50
2018-05-07T06:44:38.670Z,11.00
2018-05-07T06:46:15.819Z,9.50
2018-05-07T06:47:52.098Z,12.75
2018-05-07T06:49:28.345Z,11.00
2018-05-07T06:51:05.515Z,10.25
2018-05-07T06:52:42.747Z,12.00
2018-05-07T06:54:19.101Z,12.00
2018-05-07T06:55:55.335Z,12.25
2018-05-07T06:57:31.601Z,8.75
2018-05-07T06:59:09.094Z,9.25
2018-05-07T07:00:45.733Z,8.00
2018-05-07T07:02:22.005Z,9.00
2018-05-07T07:03:58.200Z,8.75
2018-05-07T07:05:34.829Z,10.75
2018-05-07T07:07:11.051Z,9.25
2018-05-07T07:08:47.295Z,11.75
2018-05-07T07:10:23.519Z,7.00
2018-05-07T07:12:00.928Z,9.50
2018-05-07T07:13:37.180Z,11.00
2018-05-07T07:15:14.818Z,9.25
2018-05-07T07:16:52.226Z,17.75
2018-05-07T07:18:29.726Z,8.25
2018-05-07T07:20:06.056Z,9.25
2018-05-07T07:21:42.476Z,9.25
2018-05-07T07:23:19.479Z,10.00
2018-05-07T07:24:55.950Z,8.75
2018-05-07T07:26:32.522Z,10.75
2018-05-07T07:28:08.855Z,13.00
2018-05-07T07:29:45.007Z,10.00
2018-05-07T07:31:22.217Z,11.00
2018-05-07T07:32:58.793Z,8.00
2018-05-07T07:34:36.008Z,9.00
2018-05-07T07:36:13.191Z,8.25
2018-05-07T07:37:49.742Z,8.50
2018-05-07T07:39:25.993Z,9.25
2018-05-07T07:41:02.202Z,13.75
2018-05-07T07:42:39.205Z,8.75
2018-05-07T07:44:15.826Z,11.50
2018-05-07T07:45:53.085Z,13.25
2018-05-07T07:47:30.380Z,9.75
2018-05-07T07:49:06.757Z,9.50
2018-05-07T07:50:43.333Z,8.25
2018-05-07T07:52:19.612Z,9.75
2018-05-07T07:53:55.983Z,9.25
2018-05-07T07:55:33.118Z,10.75
2018-05-07T07:57:10.622Z,9.50
2018-05-07T07:58:47.733Z,9.75
2018-05-07T08:00:25.975Z,9.25
2018-05-07T08:02:02.861Z,8.00
2018-05-07T08:03:39.625Z,8.75
2018-05-07T08:05:15.959Z,9.25
2018-05-07T08:06:52.220Z,7.75
2018-05-07T08:08:28.579Z,11.50
2018-05-07T08:10:05.170Z,9.25
2018-05-07T08:11:42.235Z,7.00
2018-05-07T08:13:19.475Z,9.25
2018-05-07T08:14:56.615Z,7.75
2018-05-07T08:16:34.469Z,18.50
2018-05-07T08:18:10.750Z,11.00
2018-05-07T08:19:47.129Z,7.25
2018-05-07T08:21:23.727Z,7.75
2018-05-07T08:23:00.518Z,8.25
2018-05-07T08:24:36.921Z,8.00
2018-05-07T08:26:13.222Z,8.25
2018-05-07T08:27:49.478Z,10.75
2018-05-07T08:29:25.995Z,9.50
2018-05-07T08:31:03.356Z,10.25
2018-05-07T08:32:39.654Z,7.25
2018-05-07T08:34:16.642Z,9.00
2018-05-07T08:35:52.993Z,8.25
2018-05-07T08:37:29.256Z,6.75
2018-05-07T08:39:06.366Z,11.00
2018-05-07T08:40:43.985Z,7.00
2018-05-07T08:42:21.146Z,6.00
2018-05-07T08:43:57.390Z,8.50
2018-05-07T08:45:33.950Z,14.25
2018-05-07T08:47:10.533Z,9.25
2018-05-07T08:48:46.781Z,9.50
2018-05-07T08:50:22.958Z,8.25
2018-05-07T08:51:59.198Z,10.00
2018-05-07T08:53:36.291Z,10.25
2018-05-07T08:55:12.668Z,9.50
2018-05-07T08:56:48.992Z,6.00
2018-05-07T08:58:25.293Z,6.00
2018-05-07T09:00:01.813Z,8.75
2018-05-07T09:01:38.741Z,9.75
2018-05-07T09:03:15.250Z,8.75
2018-05-07T09:04:53.680Z,8.25
2018-05-07T09:06:30.688Z,7.00
2018-05-07T09:08:07.377Z,7.25
2018-05-07T09:09:43.699Z,7.00
2018-05-07T09:11:20.368Z,10.50
2018-05-07T09:12:56.739Z,9.75
2018-05-07T09:14:33.028Z,7.75
2018-05-07T09:16:09.511Z,7.50
2018-05-07T09:17:47.080Z,7.50
2018-05-07T09:19:23.310Z,8.50
2018-05-07T09:20:59.574Z,9.00
2018-05-07T09:22:35.837Z,9.25
2018-05-07T09:24:12.111Z,10.25
2018-05-07T09:25:48.342Z,8.00
2018-05-07T09:27:24.690Z,7.00
2018-05-07T09:29:01.240Z,7.00
2018-05-07T09:30:38.765Z,8.00
2018-05-07T09:32:16.127Z,9.00
2018-05-07T09:33:53.257Z,7.75
2018-05-07T09:35:29.950Z,7.75
2018-05-07T09:37:06.321Z,10.50
2018-05-07T09:38:42.502Z,8.00
2018-05-07T09:40:18.845Z,8.00
2018-05-07T09:41:56.221Z,9.25
2018-05-07T09:43:37.206Z,9.00
2018-05-07T09:45:15.345Z,13.50
2018-05-07T09:46:51.860Z,8.75
2018-05-07T09:48:28.227Z,10.00
2018-05-07T09:50:05.309Z,9.50
2018-05-07T09:51:41.537Z,12.50
2018-05-07T09:53:18.069Z,8.00
2018-05-07T09:54:55.131Z,8.00
2018-05-07T09:56:32.752Z,8.00
2018-05-07T09:58:09.075Z,7.25
2018-05-07T09:59:46.288Z,6.25
2018-05-07T10:01:23.202Z,7.00
2018-05-07T10:02:59.450Z,7.00
2018-05-07T10:04:36.622Z,7.00
2018-05-07T10:06:13.362Z,6.00
2018-05-07T10:07:49.848Z,9.00
2018-05-07T10:09:26.099Z,9.00
2018-05-07T10:11:02.389Z,5.50
2018-05-07T10:12:38.736Z,6.25
2018-05-07T10:14:15.080Z,5.00
2018-05-07T10:15:51.714Z,9.00
2018-05-07T10:17:30.312Z,8.00
2018-05-07T10:19:08.346Z,7.25
2018-05-07T10:20:45.354Z,8.00
2018-05-07T10:22:21.641Z,8.00
2018-05-07T10:23:58.374Z,9.00
2018-05-07T10:25:34.754Z,6.00
2018-05-07T10:27:11.512Z,7.00
2018-05-07T10:28:47.874Z,7.00
2018-05-07T10:30:26.284Z,6.50
2018-05-07T10:32:02.586Z,7.75
2018-05-07T10:33:39.273Z,7.00
2018-05-07T10:35:15.615Z,5.00
2018-05-07T10:36:52.552Z,9.25
2018-05-07T10:38:29.070Z,5.25
2018-05-07T10:40:05.663Z,6.75
2018-05-07T10:41:43.652Z,8.75
2018-05-07T10:43:21.288Z,5.00
2018-05-07T10:44:57.565Z,7.00
2018-05-07T10:46:34.337Z,4.00
2018-05-07T10:48:10.673Z,8.50
2018-05-07T10:49:47.296Z,8.75
2018-05-07T10:51:23.546Z,13.25
2018-05-07T10:52:59.873Z,5.50
2018-05-07T10:54:37.258Z,10.00
2018-05-07T10:56:14.892Z,6.50
2018-05-07T10:57:51.190Z,12.00
2018-05-07T10:59:27.470Z,5.50
2018-05-07T11:01:04.047Z,5.75
2018-05-07T11:02:41.373Z,5.50
2018-05-07T11:04:17.772Z,9.50
2018-05-07T11:05:54.115Z,9.00
2018-05-07T11:07:30.566Z,10.50
2018-05-07T11:09:06.987Z,5.00
2018-05-07T11:10:43.297Z,8.25
2018-05-07T11:12:19.674Z,6.00
2018-05-07T11:13:56.636Z,7.00
2018-05-07T11:15:33.583Z,4.25
2018-05-07T11:17:09.893Z,9.00
2018-05-07T11:18:46.202Z,7.75
2018-05-07T11:20:22.945Z,8.50
2018-05-07T11:22:00.054Z,7.00
2018-05-07T11:23:36.409Z,7.00
2018-05-07T11:25:12.738Z,7.50
2018-05-07T11:26:50.236Z,9.75
2018-05-07T11:28:26.574Z,7.00
2018-05-07T11:30:02.918Z,8.00
2018-05-07T11:31:39.265Z,7.50
2018-05-07T11:33:15.521Z,9.00
2018-05-07T11:34:52.012Z,6.25
2018-05-07T11:36:28.358Z,8.75
2018-05-07T11:38:04.679Z,6.50
2018-05-07T11:39:40.979Z,7.75
2018-05-07T11:41:17.958Z,7.75
2018-05-07T11:42:54.222Z,5.00
2018-05-07T11:44:30.806Z,7.75
2018-05-07T11:46:07.233Z,9.75
2018-05-07T11:47:43.648Z,8.00
2018-05-07T11:49:20.038Z,6.00
2018-05-07T11:50:57.935Z,6.50
2018-05-07T11:52:34.922Z,5.00
2018-05-07T11:54:11.212Z,6.75
2018-05-07T11:55:47.505Z,6.00
2018-05-07T11:57:24.091Z,10.25
2018-05-07T11:59:00.397Z,8.00
2018-05-07T12:00:38.426Z,8.00
2018-05-07T12:02:14.751Z,6.00
2018-05-07T12:03:52.049Z,7.00
2018-05-07T12:05:28.311Z,9.00
2018-05-07T12:07:04.526Z,9.00
2018-05-07T12:08:41.975Z,7.00
2018-05-07T12:10:18.215Z,5.00
2018-05-07T12:11:54.509Z,6.00
2018-05-07T12:13:30.911Z,6.75
2018-05-07T12:15:07.763Z,6.50
2018-05-07T12:16:44.170Z,9.00
2018-05-07T12:18:21.165Z,6.25
2018-05-07T12:19:57.511Z,9.00
2018-05-07T12:21:33.757Z,5.75
2018-05-07T12:23:10.118Z,5.75
2018-05-07T12:24:47.165Z,6.00
2018-05-07T12:26:23.450Z,3.75
2018-05-07T12:28:00.160Z,6.00
2018-05-07T12:29:36.497Z,8.50
2018-05-07T12:31:13.387Z,7.50
2018-05-07T12:32:50.972Z,7.50
2018-05-07T12:34:28.574Z,8.50
2018-05-07T12:36:05.731Z,6.00
2018-05-07T12:37:41.958Z,6.00
2018-05-07T12:39:18.271Z,6.00
2018-05-07T12:40:55.776Z,7.75
2018-05-07T12:42:32.152Z,11.00
2018-05-07T12:44:08.471Z,10.00
2018-05-07T12:45:45.994Z,6.00
2018-05-07T12:47:22.744Z,7.50
2018-05-07T12:48:59.434Z,11.00
2018-05-07T12:50:36.174Z,14.00
2018-05-07T12:52:13.765Z,8.00
2018-05-07T12:53:50.888Z,6.75
2018-05-07T12:55:30.097Z,8.25
2018-05-07T12:57:06.396Z,5.25
2018-05-07T12:58:42.753Z,7.50
2018-05-07T13:00:19.933Z,9.50
2018-05-07T13:01:56.472Z,5.25
2018-05-07T13:03:33.592Z,8.75
2018-05-07T13:05:10.398Z,7.25
2018-05-07T13:06:47.471Z,7.25
2018-05-07T13:08:23.991Z,6.00
2018-05-07T13:10:00.346Z,8.00
2018-05-07T13:11:37.892Z,5.00
2018-05-07T13:13:14.177Z,9.00
2018-05-07T13:14:51.322Z,7.50
2018-05-07T13:16:27.908Z,7.00
2018-05-07T13:18:04.286Z,5.00
2018-05-07T13:19:40.695Z,7.50
2018-05-07T13:21:17.058Z,7.25
2018-05-07T13:22:53.328Z,5.75
2018-05-07T13:24:30.182Z,7.25
2018-05-07T13:26:06.556Z,6.00
2018-05-07T13:27:42.853Z,7.00
2018-05-07T13:29:19.317Z,6.50
2018-05-07T13:30:56.178Z,8.00
2018-05-07T13:32:32.736Z,6.00
2018-05-07T13:34:09.123Z,7.50
2018-05-07T13:35:46.241Z,7.50
2018-05-07T13:37:23.806Z,6.00
2018-05-07T13:39:00.171Z,8.00
2018-05-07T13:40:36.585Z,7.50
2018-05-07T13:42:12.861Z,6.00
2018-05-07T13:43:49.597Z,7.00
2018-05-07T13:45:27.890Z,6.50
2018-05-07T13:48:41.432Z,7.00
2018-05-07T13:50:18.128Z,6.00
2018-05-07T13:51:54.520Z,10.75
2018-05-07T13:53:31.858Z,8.00
2018-05-07T13:55:08.279Z,5.75
2018-05-07T13:56:44.920Z,6.25
2018-05-07T13:58:22.012Z,7.00
2018-05-07T13:59:58.458Z,7.75
2018-05-07T14:01:35.021Z,6.25
2018-05-07T14:03:11.641Z,7.00
2018-05-07T14:04:48.051Z,6.00
2018-05-07T14:06:24.425Z,7.25
2018-05-07T14:08:01.832Z,7.00
2018-05-07T14:09:38.594Z,8.75
2018-05-07T14:11:14.982Z,6.50
2018-05-07T14:12:54.471Z,6.50
2018-05-07T14:14:32.410Z,8.50
2018-05-07T14:16:09.539Z,7.00
2018-05-07T14:17:46.944Z,6.00
2018-05-07T14:19:24.122Z,6.75
2018-05-07T14:21:00.501Z,9.50
2018-05-07T14:22:37.682Z,7.00
2018-05-07T14:24:14.082Z,17.00
2018-05-07T14:25:50.509Z,6.50
2018-05-07T14:27:26.883Z,5.75
2018-05-07T14:29:04.673Z,7.00
2018-05-07T14:30:41.048Z,8.00
2018-05-07T14:32:17.677Z,7.50
2018-05-07T14:33:54.110Z,11.00
2018-05-07T14:35:31.237Z,8.75
2018-05-07T14:37:07.770Z,7.75
2018-05-07T14:38:44.229Z,9.50
2018-05-07T14:40:21.063Z,9.50
2018-05-07T14:41:57.829Z,8.75
2018-05-07T14:43:34.344Z,8.25
2018-05-07T14:45:13.097Z,7.00
2018-05-07T14:46:49.918Z,6.75
2018-05-07T14:48:26.679Z,8.75
2018-05-07T14:50:03.422Z,8.00
2018-05-07T14:51:39.838Z,7.00
2018-05-07T14:53:16.293Z,7.00
2018-05-07T14:54:52.982Z,6.50
2018-05-07T14:56:29.768Z,6.00
2018-05-07T14:58:07.433Z,9.00
2018-05-07T14:59:43.920Z,9.00
2018-05-07T15:01:21.679Z,6.50
2018-05-07T15:02:58.206Z,6.50
2018-05-07T15:04:34.727Z,7.75
2018-05-07T15:06:11.322Z,6.75
2018-05-07T15:07:48.419Z,8.00
2018-05-07T15:09:24.761Z,9.00
2018-05-07T15:11:02.120Z,7.50
2018-05-07T15:12:38.593Z,9.25
2018-05-07T15:14:24.299Z,9.50
2018-05-07T15:16:02.960Z,8.00
2018-05-07T15:17:40.458Z,9.00
2018-05-07T15:19:16.833Z,8.75
2018-05-07T15:20:55.022Z,7.25
2018-05-07T15:22:32.328Z,8.00
2018-05-07T15:24:09.466Z,8.00
2018-05-07T15:25:46.185Z,7.75
2018-05-07T15:27:23.205Z,6.50
2018-05-07T15:28:59.917Z,8.75
2018-05-07T15:30:36.884Z,7.50
2018-05-07T15:32:14.300Z,7.25
2018-05-07T15:33:51.357Z,7.75
2018-05-07T15:35:29.217Z,8.75
2018-05-07T15:37:06.553Z,6.00
2018-05-07T15:38:44.062Z,11.00
2018-05-07T15:40:20.831Z,9.00
2018-05-07T15:41:57.179Z,7.00
2018-05-07T15:43:33.950Z,7.50
2018-05-07T15:45:10.652Z,7.25
2018-05-07T15:46:48.715Z,9.00
2018-05-07T15:48:25.235Z,9.25
2018-05-07T15:50:02.468Z,8.75
2018-05-07T15:51:39.708Z,8.25
2018-05-07T15:53:16.985Z,7.00
2018-05-07T15:54:53.958Z,7.25
2018-05-07T15:56:30.478Z,10.25
2018-05-07T15:58:07.027Z,7.00
2018-05-07T15:59:43.768Z,8.25
2018-05-07T16:01:20.608Z,8.00
2018-05-07T16:02:58.353Z,8.00
2018-05-07T16:04:35.523Z,7.00
2018-05-07T16:06:12.397Z,9.25
2018-05-07T16:07:55.134Z,9.00
2018-05-07T16:09:33.048Z,9.50
2018-05-07T16:11:09.624Z,7.75
2018-05-07T16:12:56.814Z,7.00
2018-05-07T16:14:33.711Z,9.25
2018-05-07T16:16:10.386Z,9.50
2018-05-07T16:17:46.851Z,7.25
2018-05-07T16:19:23.837Z,8.75
2018-05-07T16:21:00.328Z,8.75
2018-05-07T16:22:36.964Z,10.50
2018-05-07T16:24:13.469Z,6.00
2018-05-07T16:25:51.116Z,8.75
2018-05-07T16:27:27.524Z,8.00
2018-05-07T16:29:03.968Z,9.75
2018-05-07T16:30:40.510Z,7.75
2018-05-07T16:32:18.180Z,7.75
2018-05-07T16:33:55.556Z,9.00
2018-05-07T16:35:33.951Z,8.50
2018-05-07T16:37:10.758Z,8.25
2018-05-07T16:38:47.916Z,9.00
2018-05-07T16:40:24.811Z,8.00
2018-05-07T16:42:01.954Z,7.50
2018-05-07T16:43:39.428Z,6.00
2018-05-07T16:45:17.461Z,8.25
2018-05-07T16:46:54.524Z,7.50
2018-05-07T16:48:31.474Z,9.00
2018-05-07T16:50:08.219Z,7.50
2018-05-07T16:51:46.211Z,10.50
2018-05-07T16:53:22.593Z,9.25
2018-05-07T16:54:59.777Z,7.00
2018-05-07T16:56:37.608Z,8.50
2018-05-07T16:58:14.689Z,9.00
2018-05-07T16:59:52.365Z,7.00
2018-05-07T17:01:30.153Z,8.50
2018-05-07T17:03:07.103Z,6.00
2018-05-07T17:04:44.428Z,9.50
2018-05-07T17:06:21.124Z,5.50
2018-05-07T17:07:57.644Z,7.00
2018-05-07T17:09:34.256Z,6.00
2018-05-07T17:11:12.452Z,6.75
2018-05-07T17:12:50.644Z,8.00
2018-05-07T17:14:28.915Z,6.50
2018-05-07T17:16:05.888Z,7.75
2018-05-07T17:17:45.746Z,9.25
2018-05-07T17:19:24.490Z,8.50
2018-05-07T17:21:17.859Z,7.00
2018-05-07T17:22:56.507Z,7.25
2018-05-07T17:24:36.589Z,9.00
2018-05-07T17:26:15.971Z,7.50
2018-05-07T17:27:55.238Z,7.25
2018-05-07T17:29:32.365Z,8.00
2018-05-07T17:31:10.828Z,9.00
2018-05-07T17:32:48.662Z,7.75
2018-05-07T17:34:26.681Z,7.00
2018-05-07T17:36:06.015Z,8.00
2018-05-07T17:37:44.653Z,8.75
2018-05-07T17:39:21.581Z,7.75
2018-05-07T17:40:59.505Z,7.00
2018-05-07T17:42:38.480Z,7.75
2018-05-07T17:44:30.062Z,7.50
2018-05-07T17:46:25.301Z,6.50
2018-05-07T17:49:17.201Z,7.00
2018-05-07T17:50:59.029Z,8.00
2018-05-07T17:54:08.279Z,6.75
2018-05-07T17:55:49.537Z,5.00
2018-05-07T17:57:35.227Z,6.50
2018-05-07T17:59:15.685Z,10.00
2018-05-07T18:00:57.370Z,7.00
2018-05-07T18:02:39.975Z,8.00
2018-05-07T18:04:24.275Z,7.25
2018-05-07T18:06:05.899Z,8.00
2018-05-07T18:07:47.080Z,8.75
2018-05-07T18:09:26.590Z,7.25
2018-05-07T18:11:06.930Z,8.75
2018-05-07T18:12:47.869Z,9.50
2018-05-07T18:14:27.507Z,8.50
2018-05-07T18:16:15.031Z,6.75
2018-05-07T18:17:54.295Z,7.00
2018-05-07T18:19:34.188Z,7.00
2018-05-07T18:21:14.981Z,7.25
2018-05-07T18:22:54.931Z,8.00
2018-05-07T18:24:39.020Z,7.00
2018-05-07T18:26:22.671Z,5.75
2018-05-07T18:28:03.845Z,7.00
2018-05-07T18:29:44.663Z,6.00
2018-05-07T18:31:23.831Z,6.50
2018-05-07T18:33:04.064Z,7.75
2018-05-07T18:34:42.746Z,7.75
2018-05-07T18:36:20.366Z,7.00
2018-05-07T18:37:59.421Z,8.75
2018-05-07T18:39:41.351Z,9.00
2018-05-07T18:41:21.272Z,8.75
2018-05-07T18:43:00.707Z,8.00
2018-05-07T18:44:43.049Z,8.75
2018-05-07T18:46:23.932Z,8.00
2018-05-07T18:48:03.110Z,8.00
2018-05-07T18:49:46.613Z,8.25
2018-05-07T18:51:27.997Z,8.25
2018-05-07T18:53:07.701Z,9.00
2018-05-07T18:54:48.205Z,9.50
2018-05-07T18:56:30.574Z,7.25
2018-05-07T18:58:12.860Z,8.00
2018-05-07T18:59:55.238Z,9.00
2018-05-07T19:01:35.191Z,11.00
2018-05-07T19:03:16.606Z,8.25
2018-05-07T19:05:00.201Z,8.00
2018-05-07T19:08:38.604Z,14.50
2018-05-07T19:10:20.641Z,10.00
2018-05-07T19:12:00.299Z,7.25
2018-05-07T19:13:42.646Z,7.25
2018-05-07T19:15:33.665Z,7.25
2018-05-07T19:17:15.490Z,7.25
2018-05-07T19:18:55.228Z,8.75
2018-05-07T19:20:36.295Z,6.50
2018-05-07T19:22:17.006Z,7.25
2018-05-07T19:23:57.229Z,7.75
2018-05-07T19:25:34.962Z,6.00
2018-05-07T19:27:15.584Z,7.00
2018-05-07T19:28:56.545Z,7.25
2018-05-07T19:30:36.155Z,8.25
2018-05-07T19:32:16.250Z,9.00
2018-05-07T19:33:57.573Z,8.25
2018-05-07T19:35:40.514Z,11.00
2018-05-07T19:37:21.569Z,9.50
2018-05-07T19:39:02.268Z,10.75
2018-05-07T19:40:42.353Z,9.00
2018-05-07T19:42:25.426Z,9.50
2018-05-07T19:44:05.083Z,11.00
2018-05-07T19:45:48.163Z,7.75
2018-05-07T19:47:28.199Z,13.75
2018-05-07T19:49:09.667Z,10.50
2018-05-07T19:50:48.241Z,10.50
2018-05-07T19:52:27.623Z,9.75
2018-05-07T19:54:07.245Z,8.25
2018-05-07T19:55:49.789Z,11.00
2018-05-07T19:57:30.258Z,11.00
2018-05-07T19:59:09.964Z,10.75
2018-05-07T20:00:48.536Z,10.00
2018-05-07T20:02:26.457Z,10.50
2018-05-07T20:04:06.233Z,10.50
2018-05-07T20:05:44.119Z,11.50
2018-05-07T20:07:21.984Z,8.75
2018-05-07T20:08:59.697Z,11.00
2018-05-07T20:10:38.811Z,11.00
2018-05-07T20:12:17.552Z,12.50
2018-05-07T20:13:58.042Z,11.00
2018-05-07T20:15:36.345Z,11.00
2018-05-07T20:17:16.676Z,10.75
2018-05-07T20:18:57.345Z,14.00
2018-05-07T20:20:39.243Z,10.50
2018-05-07T20:22:19.053Z,11.00
2018-05-07T20:23:57.223Z,10.00
2018-05-07T20:25:37.116Z,12.50
2018-05-07T20:33:05.098Z,13.00
2018-05-07T20:34:46.505Z,15.00
2018-05-07T20:36:27.087Z,13.00
2018-05-07T20:38:06.949Z,14.25
2018-05-07T20:39:46.181Z,16.25
2018-05-07T20:41:24.570Z,14.00
2018-05-07T20:43:03.512Z,15.00
2018-05-07T20:44:46.239Z,18.25
2018-05-07T20:46:25.868Z,13.50
2018-05-07T20:48:03.641Z,15.50
2018-05-07T20:49:44.638Z,12.00
2018-05-07T20:51:24.004Z,12.00
2018-05-07T20:53:02.210Z,10.00
2018-05-07T20:54:39.592Z,9.50
2018-05-07T20:56:16.313Z,11.50
2018-05-07T20:57:54.655Z,11.00
2018-05-07T20:59:32.127Z,12.00
2018-05-07T21:01:09.747Z,12.25
2018-05-07T21:02:47.323Z,11.50
2018-05-07T21:04:24.161Z,12.00
2018-05-07T21:06:02.308Z,12.25
2018-05-07T21:07:43.006Z,11.25
2018-05-07T21:09:21.117Z,12.50
2018-05-07T21:10:57.962Z,12.00
2018-05-07T21:12:35.116Z,13.50
2018-05-07T21:14:12.702Z,13.25
2018-05-07T21:15:52.420Z,14.75
2018-05-07T21:17:29.347Z,13.25
2018-05-07T21:19:07.930Z,11.00
2018-05-07T21:20:44.738Z,12.00
2018-05-07T21:22:23.649Z,13.75
2018-05-07T21:24:01.089Z,14.50
2018-05-07T21:25:37.644Z,13.50
2018-05-07T21:27:14.100Z,16.00
2018-05-07T21:28:50.626Z,13.50
2018-05-07T21:30:42.402Z,12.75
2018-05-07T21:32:19.859Z,10.75
2018-05-07T21:33:57.865Z,11.00
2018-05-07T21:35:34.164Z,12.50
2018-05-07T21:37:10.493Z,11.75
2018-05-07T21:38:47.660Z,14.25